Time;durP1;ratioP1;P1;durP2;ratioP2;P2;SDS_P1;SDS_P2;PMS_P1;PMS_P2;Temp;Humidity;BMP_temperature;BMP_pressure;BME280_temperature;BME280_humidity;BME280_pressure;Samples;Min_cycle;Max_cycle;Signal;HPM_P1;HPM_P2
2020/12/24 00:00:59;;;;;;;11.43;8.60;;;6.40;99.90;;;;;;4957426;28;20499;-68
2020/12/24 00:03:25;;;;;;;9.83;8.10;;;6.30;99.90;;;;;;4956525;28;20520;-68
2020/12/24 00:05:52;;;;;;;10.60;7.87;;;6.40;99.90;;;;;;4956596;29;20448;-69
2020/12/24 00:08:21;;;;;;;10.17;8.10;;;6.30;99.90;;;;;;4956394;29;20484;-68
2020/12/24 00:10:47;;;;;;;10.23;8.40;;;6.30;99.90;;;;;;4956383;29;20484;-68
2020/12/24 00:13:13;;;;;;;15.00;9.07;;;6.40;99.90;;;;;;4964928;28;20485;-68
2020/12/24 00:15:40;;;;;;;13.57;11.13;;;6.30;99.90;;;;;;4959682;28;20518;-68
2020/12/24 00:18:07;;;;;;;10.53;7.53;;;6.20;99.90;;;;;;4956587;29;20452;-69
2020/12/24 00:20:33;;;;;;;11.20;6.90;;;6.20;99.90;;;;;;4955975;29;20490;-69
2020/12/24 00:22:59;;;;;;;13.10;7.33;;;6.20;99.90;;;;;;4956346;29;20955;-69
2020/12/24 00:25:26;;;;;;;11.77;6.90;;;6.30;99.90;;;;;;4956162;29;20456;-69
2020/12/24 00:27:52;;;;;;;10.00;6.20;;;6.30;99.90;;;;;;4956659;28;20491;-69
2020/12/24 00:30:18;;;;;;;11.77;6.43;;;6.20;99.90;;;;;;4955798;29;20479;-69
2020/12/24 00:32:44;;;;;;;10.20;6.40;;;6.20;99.90;;;;;;4956294;29;20458;-69
2020/12/24 00:35:12;;;;;;;13.53;6.77;;;6.10;99.90;;;;;;4969944;28;21010;-69
2020/12/24 00:37:38;;;;;;;10.83;5.80;;;6.10;99.90;;;;;;4976171;28;20491;-69
2020/12/24 00:40:05;;;;;;;9.00;5.40;;;6.10;99.90;;;;;;4958617;28;20480;-69
2020/12/24 00:42:31;;;;;;;6.70;4.80;;;6.00;99.90;;;;;;4957445;28;20778;-68
2020/12/24 00:44:58;;;;;;;14.80;5.67;;;6.00;99.90;;;;;;4968736;28;20488;-68
2020/12/24 00:47:24;;;;;;;5.90;4.97;;;5.90;99.90;;;;;;4970798;29;20492;-68
2020/12/24 00:49:51;;;;;;;6.97;4.47;;;5.90;99.90;;;;;;4967507;28;20507;-68
2020/12/24 00:52:18;;;;;;;6.60;4.50;;;5.90;99.90;;;;;;4961263;29;20543;-68
2020/12/24 00:54:45;;;;;;;5.00;4.30;;;5.90;99.90;;;;;;4955643;28;20460;-68
2020/12/24 00:57:11;;;;;;;7.10;4.47;;;5.90;99.90;;;;;;4956859;29;20455;-68
2020/12/24 00:59:37;;;;;;;4.67;4.10;;;5.90;99.90;;;;;;4956629;29;20460;-68
2020/12/24 01:02:04;;;;;;;5.67;4.50;;;5.90;99.90;;;;;;4956436;28;20455;-68
2020/12/24 01:04:30;;;;;;;6.50;4.20;;;5.80;99.90;;;;;;4956207;28;21240;-68
2020/12/24 01:06:56;;;;;;;8.03;5.23;;;5.80;99.90;;;;;;4955832;28;20539;-68
2020/12/24 01:09:23;;;;;;;5.20;4.80;;;5.80;99.90;;;;;;4955775;29;20464;-68
2020/12/24 01:11:50;;;;;;;4.10;3.80;;;5.80;99.90;;;;;;4956250;29;20459;-68
2020/12/24 01:14:16;;;;;;;9.00;4.10;;;5.80;99.90;;;;;;4955574;28;20542;-68
2020/12/24 01:16:42;;;;;;;7.07;3.57;;;5.80;99.90;;;;;;4959851;29;20457;-70
2020/12/24 01:19:08;;;;;;;7.80;3.87;;;5.80;99.90;;;;;;4970022;29;20982;-69
2020/12/24 01:21:35;;;;;;;7.30;4.40;;;5.80;99.90;;;;;;4971116;29;20464;-69
2020/12/24 01:24:01;;;;;;;6.87;4.70;;;5.70;99.90;;;;;;4969830;28;20463;-69
2020/12/24 01:26:28;;;;;;;6.23;4.60;;;5.70;99.90;;;;;;4969425;29;20480;-69
2020/12/24 01:28:54;;;;;;;6.87;3.80;;;5.70;99.90;;;;;;4969150;28;20451;-69
2020/12/24 01:31:21;;;;;;;7.50;3.87;;;5.80;99.90;;;;;;4968662;29;20536;-69
2020/12/24 01:33:47;;;;;;;5.07;4.03;;;5.70;99.90;;;;;;4968646;29;20448;-69
2020/12/24 01:36:13;;;;;;;6.70;4.47;;;5.70;99.90;;;;;;4979684;28;20515;-69
2020/12/24 01:38:40;;;;;;;6.40;4.60;;;5.70;99.90;;;;;;4970031;28;20444;-69
2020/12/24 01:41:07;;;;;;;5.80;4.50;;;5.70;99.90;;;;;;4955299;29;20528;-69
2020/12/24 01:43:34;;;;;;;5.40;3.73;;;5.70;99.90;;;;;;4954091;29;20452;-69
2020/12/24 01:46:00;;;;;;;5.10;3.93;;;5.70;99.90;;;;;;4954795;28;20448;-69
2020/12/24 01:48:26;;;;;;;5.63;3.80;;;5.70;99.90;;;;;;4954702;28;20480;-69
2020/12/24 01:50:53;;;;;;;5.57;4.07;;;5.70;99.90;;;;;;4954747;28;20480;-69
2020/12/24 01:53:21;;;;;;;5.47;4.10;;;5.60;99.90;;;;;;4954461;29;20452;-69
2020/12/24 01:55:48;;;;;;;4.70;4.03;;;5.70;99.90;;;;;;4954462;29;20479;-69
2020/12/24 01:58:15;;;;;;;4.83;4.30;;;5.60;99.90;;;;;;4954246;29;20498;-69
2020/12/24 02:00:46;;;;;;;15.67;4.90;;;5.70;99.90;;;;;;4954460;29;20468;-68
2020/12/24 02:03:12;;;;;;;8.30;4.60;;;5.70;99.90;;;;;;4954371;29;20463;-69
2020/12/24 02:05:38;;;;;;;8.33;4.40;;;5.60;99.90;;;;;;4953652;28;20503;-69
2020/12/24 02:08:05;;;;;;;5.07;4.60;;;5.60;99.90;;;;;;4953700;29;20488;-69
2020/12/24 02:10:31;;;;;;;6.33;4.20;;;5.60;99.90;;;;;;4966730;28;20505;-69
2020/12/24 02:12:57;;;;;;;7.40;5.47;;;5.70;99.90;;;;;;4967665;28;20963;-69
2020/12/24 02:15:24;;;;;;;9.33;4.60;;;5.60;99.90;;;;;;4954392;29;20491;-69
2020/12/24 02:17:51;;;;;;;4.80;4.30;;;5.60;99.90;;;;;;4954129;29;20461;-69
2020/12/24 02:20:17;;;;;;;7.10;4.70;;;5.60;99.90;;;;;;4953992;28;20476;-69
2020/12/24 02:22:44;;;;;;;7.03;4.73;;;5.60;99.90;;;;;;4953812;29;20560;-69
2020/12/24 02:25:11;;;;;;;5.20;4.70;;;5.60;99.90;;;;;;4953647;28;20448;-69
2020/12/24 02:27:37;;;;;;;8.27;5.30;;;5.60;99.90;;;;;;4953674;29;20491;-69
2020/12/24 02:30:04;;;;;;;5.30;4.80;;;5.60;99.90;;;;;;4962388;28;20475;-70
2020/12/24 02:32:30;;;;;;;5.33;4.10;;;5.70;99.90;;;;;;4960822;28;20462;-69
2020/12/24 02:34:57;;;;;;;5.10;4.60;;;5.60;99.90;;;;;;4953913;28;20495;-69
2020/12/24 02:37:24;;;;;;;7.83;4.77;;;5.50;99.90;;;;;;4953729;29;21031;-69
2020/12/24 02:39:52;;;;;;;11.70;4.67;;;5.50;99.90;;;;;;4953830;29;20476;-68
2020/12/24 02:42:19;;;;;;;5.53;4.60;;;5.60;99.90;;;;;;4954157;29;20457;-69
2020/12/24 02:44:45;;;;;;;7.47;4.43;;;5.50;99.90;;;;;;4953585;29;20466;-69
2020/12/24 02:47:11;;;;;;;5.30;4.60;;;5.60;99.90;;;;;;4953698;29;20494;-69
2020/12/24 02:49:38;;;;;;;7.20;5.17;;;5.60;99.90;;;;;;4954412;28;20456;-69
2020/12/24 02:52:05;;;;;;;9.03;4.70;;;5.50;99.90;;;;;;4964515;28;20858;-69
2020/12/24 02:54:31;;;;;;;6.40;4.73;;;5.60;99.90;;;;;;4953921;29;20448;-69
2020/12/24 02:57:00;;;;;;;7.07;4.60;;;5.50;99.90;;;;;;4953850;29;20452;-69
2020/12/24 02:59:26;;;;;;;4.90;4.47;;;5.60;99.90;;;;;;4954367;29;20463;-69
2020/12/24 03:01:52;;;;;;;7.20;4.87;;;5.50;99.90;;;;;;4953707;29;20451;-69
2020/12/24 03:04:19;;;;;;;4.40;4.00;;;5.50;99.90;;;;;;4953735;29;20456;-69
2020/12/24 03:06:45;;;;;;;4.73;3.80;;;5.50;99.90;;;;;;4953564;29;20456;-68
2020/12/24 03:09:12;;;;;;;4.17;3.77;;;5.50;99.90;;;;;;4953569;29;20452;-68
2020/12/24 03:11:48;;;;;;;4.33;3.93;;;5.40;99.90;;;;;;4971954;28;20495;-69
2020/12/24 03:14:16;;;;;;;4.10;3.57;;;5.40;99.90;;;;;;4934593;29;20449;-68
2020/12/24 03:16:43;;;;;;;4.10;3.60;;;5.50;99.90;;;;;;4935036;29;20460;-69
2020/12/24 03:19:09;;;;;;;3.63;3.33;;;5.40;99.90;;;;;;4956264;29;20897;-68
2020/12/24 03:21:35;;;;;;;3.93;3.63;;;5.50;99.90;;;;;;4957507;29;20471;-69
2020/12/24 03:24:02;;;;;;;6.77;3.73;;;5.40;99.90;;;;;;4956670;29;20460;-69
2020/12/24 03:26:28;;;;;;;3.97;3.67;;;5.40;99.90;;;;;;4957706;29;20452;-68
2020/12/24 03:28:54;;;;;;;4.27;3.90;;;5.30;99.90;;;;;;4957284;28;20491;-69
2020/12/24 03:31:23;;;;;;;3.90;3.60;;;5.40;99.90;;;;;;4956824;29;20472;-69
2020/12/24 03:33:50;;;;;;;3.80;3.50;;;5.40;99.90;;;;;;4956698;29;20491;-68
2020/12/24 03:36:16;;;;;;;5.23;4.20;;;5.30;99.90;;;;;;4957150;29;20455;-69
2020/12/24 03:38:43;;;;;;;4.27;3.93;;;5.30;99.90;;;;;;4957091;29;20463;-69
2020/12/24 03:41:09;;;;;;;4.70;3.67;;;5.30;99.90;;;;;;4957233;29;20479;-69
2020/12/24 03:43:35;;;;;;;4.53;3.77;;;5.20;99.90;;;;;;4956730;28;20452;-69
2020/12/24 03:46:02;;;;;;;4.67;3.47;;;5.20;99.90;;;;;;4958824;28;20986;-69
2020/12/24 03:48:29;;;;;;;5.37;3.90;;;5.20;99.90;;;;;;4956462;29;21066;-69
2020/12/24 03:50:55;;;;;;;3.87;3.57;;;5.10;99.90;;;;;;4956819;29;20467;-69
2020/12/24 03:53:22;;;;;;;3.80;3.50;;;5.20;99.90;;;;;;4958480;28;20452;-70
2020/12/24 03:55:48;;;;;;;3.90;3.60;;;5.10;99.90;;;;;;4956751;28;20559;-69
2020/12/24 03:58:14;;;;;;;4.73;3.60;;;5.10;99.90;;;;;;4956822;29;20456;-70
2020/12/24 04:00:41;;;;;;;4.17;3.50;;;5.10;99.90;;;;;;4957108;29;20479;-70
2020/12/24 04:03:07;;;;;;;4.03;3.73;;;5.10;99.90;;;;;;4957479;29;20531;-70
2020/12/24 04:05:34;;;;;;;4.03;3.73;;;5.20;99.90;;;;;;4975928;28;20458;-69
2020/12/24 04:08:01;;;;;;;4.50;4.10;;;4.80;99.90;;;;;;4969678;28;20484;-69
2020/12/24 04:10:27;;;;;;;5.30;4.10;;;4.80;99.90;;;;;;4956451;29;20490;-69
2020/12/24 04:12:53;;;;;;;4.40;4.10;;;4.80;99.90;;;;;;4956535;29;20479;-69
2020/12/24 04:15:20;;;;;;;5.30;4.90;;;4.70;99.90;;;;;;4956313;29;20452;-70
2020/12/24 04:17:46;;;;;;;3.73;3.43;;;4.70;99.90;;;;;;4955871;29;20584;-68
2020/12/24 04:20:12;;;;;;;4.10;3.80;;;4.70;99.90;;;;;;4972477;28;20471;-69
2020/12/24 04:22:39;;;;;;;4.23;3.93;;;4.60;99.90;;;;;;4971292;28;21002;-68
2020/12/24 04:25:06;;;;;;;4.07;3.77;;;4.50;99.90;;;;;;4956209;29;20448;-69
2020/12/24 04:27:32;;;;;;;2.90;2.70;;;4.50;99.90;;;;;;4956152;29;20484;-69
2020/12/24 04:29:58;;;;;;;3.30;3.10;;;4.40;99.90;;;;;;4955318;28;20468;-69
2020/12/24 04:32:25;;;;;;;2.80;2.60;;;4.40;99.90;;;;;;4955672;29;21144;-69
2020/12/24 04:34:51;;;;;;;2.90;2.70;;;4.40;99.90;;;;;;4971520;28;20452;-67
2020/12/24 04:37:18;;;;;;;2.83;2.67;;;4.30;99.90;;;;;;4963920;28;20832;-68
2020/12/24 04:39:45;;;;;;;3.10;2.90;;;4.20;99.90;;;;;;4956104;29;20484;-69
2020/12/24 04:42:13;;;;;;;2.70;2.50;;;4.20;99.90;;;;;;4955999;29;20510;-68
2020/12/24 04:44:41;;;;;;;2.90;2.57;;;4.20;99.90;;;;;;4955548;29;20459;-69
2020/12/24 04:47:08;;;;;;;2.50;2.40;;;4.00;99.90;;;;;;4955867;29;20867;-69
2020/12/24 04:49:35;;;;;;;2.80;2.70;;;4.10;99.90;;;;;;4956252;29;20845;-70
2020/12/24 04:52:01;;;;;;;2.93;2.73;;;4.00;99.90;;;;;;4955473;29;20920;-68
2020/12/24 04:54:28;;;;;;;3.00;2.77;;;3.90;99.90;;;;;;4965611;28;20460;-69
2020/12/24 04:57:06;;;;;;;2.53;2.40;;;3.90;99.90;;;;;;4968800;28;20449;-69
2020/12/24 04:59:32;;;;;;;2.90;2.80;;;3.80;99.90;;;;;;4955175;29;20881;-69
2020/12/24 05:02:01;;;;;;;3.00;2.80;;;3.80;99.90;;;;;;4955522;29;20460;-70
2020/12/24 05:04:27;;;;;;;3.13;3.00;;;3.70;99.90;;;;;;4955570;29;20448;-69
2020/12/24 05:07:01;;;;;;;3.20;3.00;;;3.70;99.90;;;;;;4955539;29;20453;-70
2020/12/24 05:09:27;;;;;;;2.67;2.57;;;3.50;99.90;;;;;;4956670;29;20507;-69
2020/12/24 05:11:55;;;;;;;2.83;2.73;;;3.50;99.90;;;;;;4955926;29;20824;-68
2020/12/24 05:14:23;;;;;;;2.90;2.70;;;3.40;99.90;;;;;;4965228;28;20509;-69
2020/12/24 05:17:00;;;;;;;3.00;2.80;;;3.50;99.90;;;;;;4971431;28;20455;-69
2020/12/24 05:19:28;;;;;;;3.30;3.10;;;3.40;99.90;;;;;;4966951;29;20472;-69
2020/12/24 05:21:55;;;;;;;3.43;3.23;;;3.40;99.90;;;;;;4970346;29;20475;-69
2020/12/24 05:24:23;;;;;;;3.83;3.63;;;3.30;99.90;;;;;;4966919;29;20532;-69
2020/12/24 05:26:50;;;;;;;4.10;3.90;;;3.30;99.90;;;;;;4956662;29;20449;-69
2020/12/24 05:29:17;;;;;;;3.90;3.67;;;3.30;99.90;;;;;;4956848;28;20499;-69
2020/12/24 05:31:43;;;;;;;3.70;3.50;;;3.40;99.90;;;;;;4955205;29;20480;-69
2020/12/24 05:34:18;;;;;;;4.47;4.07;;;3.40;99.90;;;;;;4955777;28;20456;-69
2020/12/24 05:36:45;;;;;;;3.93;3.73;;;3.40;99.90;;;;;;4955692;29;20471;-69
2020/12/24 05:39:11;;;;;;;4.00;3.80;;;3.40;99.90;;;;;;4955792;29;20452;-69
2020/12/24 05:41:39;;;;;;;3.27;3.07;;;3.40;99.90;;;;;;4955895;28;20472;-69
2020/12/24 05:44:06;;;;;;;3.20;3.00;;;3.40;99.90;;;;;;4955703;29;20453;-68
2020/12/24 05:46:41;;;;;;;3.20;3.00;;;3.20;99.90;;;;;;4955963;28;20452;-68
2020/12/24 05:49:12;;;;;;;3.30;3.10;;;3.30;99.90;;;;;;4956327;29;20479;-68
2020/12/24 05:51:39;;;;;;;3.33;3.13;;;3.20;99.90;;;;;;4955469;29;20484;-68
2020/12/24 05:54:06;;;;;;;2.90;2.80;;;3.20;99.90;;;;;;4957183;28;20521;-68
2020/12/24 05:56:36;;;;;;;3.33;3.13;;;3.20;99.90;;;;;;4956000;29;20460;-68
2020/12/24 05:59:04;;;;;;;3.37;3.17;;;3.20;99.90;;;;;;4956292;29;20452;-68
2020/12/24 06:01:38;;;;;;;3.23;3.03;;;3.20;99.90;;;;;;4956372;29;20484;-68
2020/12/24 06:04:08;;;;;;;3.50;3.30;;;3.10;99.90;;;;;;4956208;29;20882;-68
2020/12/24 06:06:47;;;;;;;2.90;2.80;;;3.00;99.90;;;;;;4957038;29;20554;-68
2020/12/24 06:09:16;;;;;;;2.80;2.70;;;3.00;99.90;;;;;;4957408;29;20487;-68
2020/12/24 06:11:51;;;;;;;2.97;2.87;;;2.90;99.90;;;;;;4956566;28;20480;-68
2020/12/24 06:14:32;;;;;;;2.87;2.73;;;2.90;99.90;;;;;;4957033;28;20522;-68
2020/12/24 06:17:08;;;;;;;3.33;3.13;;;2.90;99.90;;;;;;4957294;29;20456;-69
2020/12/24 06:19:39;;;;;;;2.80;2.70;;;2.80;99.90;;;;;;4956612;29;20568;-68
2020/12/24 06:22:06;;;;;;;3.17;3.00;;;2.70;99.90;;;;;;4956776;29;20470;-68
2020/12/24 06:24:34;;;;;;;3.27;3.07;;;2.80;99.90;;;;;;4956237;29;20952;-68
2020/12/24 06:27:04;;;;;;;2.90;2.70;;;2.80;99.90;;;;;;4956830;29;20453;-68
2020/12/24 06:29:34;;;;;;;3.07;2.90;;;2.70;99.90;;;;;;4956456;29;20460;-68
2020/12/24 06:32:01;;;;;;;2.80;2.70;;;2.70;99.90;;;;;;4958182;28;20452;-69
2020/12/24 06:34:29;;;;;;;2.60;2.50;;;2.80;99.90;;;;;;4972909;29;20456;-69
2020/12/24 06:37:10;;;;;;;2.70;2.60;;;2.80;99.90;;;;;;4976066;28;20483;-69
2020/12/24 06:39:41;;;;;;;2.83;2.73;;;2.80;99.90;;;;;;4975447;29;20527;-69
2020/12/24 06:42:31;;;;;;;2.47;2.33;;;2.80;99.90;;;;;;4975330;29;20452;-68
2020/12/24 06:44:57;;;;;;;2.93;2.73;;;2.70;99.90;;;;;;4975589;29;20424;-69
2020/12/24 06:47:23;;;;;;;3.30;3.10;;;2.70;99.90;;;;;;4974997;29;20494;-69
2020/12/24 06:49:50;;;;;;;3.17;2.97;;;2.60;99.90;;;;;;4974983;28;20476;-69
2020/12/24 06:52:27;;;;;;;3.27;3.07;;;2.50;99.90;;;;;;4975635;28;20955;-69
2020/12/24 06:55:12;;;;;;;3.13;2.93;;;2.50;99.90;;;;;;4977495;29;20447;-69
2020/12/24 06:57:41;;;;;;;3.53;3.30;;;2.60;99.90;;;;;;4977683;29;20432;-69
2020/12/24 07:00:19;;;;;;;3.87;3.67;;;2.60;99.90;;;;;;4979505;29;20468;-69
2020/12/24 07:02:47;;;;;;;4.20;3.90;;;2.70;99.90;;;;;;4978590;29;20452;-70
2020/12/24 07:05:47;;;;;;;3.50;3.30;;;2.70;99.90;;;;;;4977813;29;20460;-69
2020/12/24 07:08:45;;;;;;;4.87;4.40;;;2.80;99.90;;;;;;4959696;28;20553;-69
2020/12/24 07:11:12;;;;;;;4.37;4.00;;;2.80;99.90;;;;;;4975595;28;21054;-69
2020/12/24 07:13:39;;;;;;;4.53;4.23;;;2.90;99.90;;;;;;4976051;29;20439;-69
2020/12/24 07:16:07;;;;;;;4.50;4.20;;;2.90;99.90;;;;;;4973824;29;20467;-70
2020/12/24 07:18:35;;;;;;;4.90;4.50;;;3.10;99.90;;;;;;4961651;29;20452;-70
2020/12/24 07:21:03;;;;;;;4.30;4.00;;;3.10;99.90;;;;;;4958910;29;20478;-69
2020/12/24 07:23:30;;;;;;;4.40;4.10;;;3.10;99.90;;;;;;4959373;29;20452;-69
2020/12/24 07:26:00;;;;;;;8.07;2.63;;;3.10;99.90;;;;;;4959177;29;20459;-71
2020/12/24 07:28:29;;;;;;;8.83;2.73;;;7.00;99.90;;;;;;4962027;28;20867;-71
2020/12/24 07:30:57;;;;;;;6.77;2.10;;;13.10;99.90;;;;;;4956996;29;20924;-71
2020/12/24 07:33:24;;;;;;;2.33;1.70;;;14.00;99.90;;;;;;4956909;28;20979;-70
2020/12/24 07:35:50;;;;;;;3.57;1.90;;;15.10;99.90;;;;;;4956334;29;20959;-70
2020/12/24 07:38:19;;;;;;;3.47;1.63;;;15.70;99.90;;;;;;4957034;29;20831;-70
2020/12/24 07:40:45;;;;;;;2.37;1.50;;;16.50;99.90;;;;;;4956728;29;20480;-70
2020/12/24 07:43:13;;;;;;;6.20;1.80;;;17.00;99.90;;;;;;4956719;29;20452;-70
2020/12/24 07:45:40;;;;;;;3.00;1.60;;;17.20;99.90;;;;;;4956288;29;20456;-70
2020/12/24 07:48:11;;;;;;;2.47;1.87;;;17.30;99.90;;;;;;4957039;28;20575;-70
2020/12/24 07:50:37;;;;;;;2.37;1.90;;;18.20;99.90;;;;;;4971562;28;20467;-69
2020/12/24 07:53:04;;;;;;;2.10;2.00;;;18.80;99.90;;;;;;4956746;29;20450;-70
2020/12/24 07:55:30;;;;;;;1.80;1.70;;;19.30;99.90;;;;;;4956320;29;20452;-70
2020/12/24 07:58:06;;;;;;;1.77;1.23;;;19.20;99.90;;;;;;4956201;29;20514;-70
2020/12/24 08:00:43;;;;;;;1.60;1.40;;;19.60;99.90;;;;;;4956160;29;20479;-70
2020/12/24 08:03:10;;;;;;;1.17;1.03;;;19.90;99.90;;;;;;4956860;28;20460;-70
2020/12/24 08:05:36;;;;;;;2.23;0.90;;;19.90;99.90;;;;;;4956118;29;20456;-69
2020/12/24 08:08:03;;;;;;;1.43;1.10;;;20.20;99.90;;;;;;4956366;29;20487;-70
2020/12/24 08:10:29;;;;;;;2.10;1.10;;;;;;;;;;4956324;28;20484;-71
2020/12/24 08:13:03;;;;;;;1.00;0.70;;;20.50;99.90;;;;;;4953565;28;20495;-70
2020/12/24 08:15:31;;;;;;;1.60;0.90;;;20.60;99.90;;;;;;4954884;29;20452;-70
2020/12/24 08:18:01;;;;;;;1.30;0.97;;;;;;;;;;4956151;29;20456;-69
2020/12/24 08:20:31;;;;;;;1.53;0.83;;;;;;;;;;4955527;28;20541;-70
2020/12/24 08:23:03;;;;;;;1.40;1.10;;;20.60;99.90;;;;;;4943077;29;20449;-69
2020/12/24 08:25:30;;;;;;;2.07;0.97;;;20.70;99.90;;;;;;4936434;29;20453;-69
2020/12/24 08:27:57;;;;;;;1.80;1.07;;;;;;;;;;4957719;28;20496;-70
2020/12/24 08:30:23;;;;;;;1.93;1.10;;;;;;;;;;4956018;28;20980;-69
2020/12/24 08:32:50;;;;;;;1.33;1.07;;;;;;;;;;4955245;29;20983;-69
2020/12/24 08:35:18;;;;;;;1.33;1.00;;;;;;;;;;4955515;28;20459;-68
2020/12/24 08:37:44;;;;;;;4.47;3.10;;;;;;;;;;4955390;28;20464;-70
2020/12/24 08:40:24;;;;;;;6.90;6.30;;;15.10;99.90;;;;;;4955785;29;20833;-71
2020/12/24 08:42:58;;;;;;;5.33;4.90;;;6.90;99.90;;;;;;4962375;28;20455;-74
2020/12/24 08:45:24;;;;;;;6.60;6.00;;;5.50;99.90;;;;;;4955627;28;20457;-73
2020/12/24 08:47:50;;;;;;;5.90;5.47;;;5.00;99.90;;;;;;4955983;28;20506;-72
2020/12/24 08:50:29;;;;;;;6.17;5.57;;;4.80;99.90;;;;;;4955062;29;20476;-73
2020/12/24 08:52:56;;;;;;;6.27;5.77;;;4.80;99.90;;;;;;4955454;29;20519;-73
2020/12/24 08:55:27;;;;;;;6.10;5.00;;;4.70;99.90;;;;;;4954984;29;20456;-72
2020/12/24 08:57:55;;;;;;;6.43;5.70;;;4.60;99.90;;;;;;4955492;29;20456;-72
2020/12/24 09:00:23;;;;;;;5.47;5.07;;;4.60;99.90;;;;;;4955512;28;20476;-73
2020/12/24 09:02:50;;;;;;;5.97;5.53;;;4.50;99.90;;;;;;4956317;28;20496;-73
2020/12/24 09:05:22;;;;;;;5.60;4.90;;;4.60;99.90;;;;;;4955288;29;20464;-73
2020/12/24 09:07:49;;;;;;;6.30;5.73;;;4.60;99.90;;;;;;4955059;29;20496;-74
2020/12/24 09:10:20;;;;;;;7.80;6.43;;;4.60;99.90;;;;;;4955144;29;20484;-73
2020/12/24 09:12:47;;;;;;;6.80;6.10;;;4.60;99.90;;;;;;4997658;23;20496;-66
2020/12/24 09:15:14;;;;;;;5.37;4.87;;;4.60;99.90;;;;;;4972268;28;20452;-66
2020/12/24 09:17:49;;;;;;;6.93;6.33;;;4.70;99.90;;;;;;4973828;28;20450;-65
2020/12/24 09:20:21;;;;;;;6.23;5.63;;;4.70;99.90;;;;;;4964546;28;20808;-66
2020/12/24 09:22:53;;;;;;;6.97;6.27;;;4.70;99.90;;;;;;4960586;28;20515;-65
2020/12/24 09:25:33;;;;;;;7.50;6.80;;;4.80;99.90;;;;;;4950098;28;20465;-65
2020/12/24 09:28:00;;;;;;;8.20;7.40;;;4.80;99.90;;;;;;4951738;29;20496;-64
2020/12/24 09:30:27;;;;;;;7.50;6.80;;;4.80;99.90;;;;;;4954175;28;20831;-64
2020/12/24 09:32:55;;;;;;;8.70;7.50;;;4.80;99.90;;;;;;4950635;28;20981;-65
2020/12/24 09:35:22;;;;;;;7.87;7.07;;;4.80;99.90;;;;;;4948393;28;20457;-64
2020/12/24 09:37:48;;;;;;;8.60;7.80;;;4.90;99.90;;;;;;4954548;28;20451;-65
2020/12/24 09:40:16;;;;;;;9.97;8.57;;;4.80;99.90;;;;;;4955356;28;20503;-65
2020/12/24 09:42:42;;;;;;;9.30;8.47;;;4.80;99.90;;;;;;4954291;28;20471;-64
2020/12/24 09:45:08;;;;;;;10.07;8.97;;;4.80;99.90;;;;;;4957561;28;20456;-64
2020/12/24 09:47:35;;;;;;;9.70;8.87;;;4.80;99.90;;;;;;4956526;28;20454;-65
2020/12/24 09:50:01;;;;;;;9.97;8.90;;;4.80;99.90;;;;;;4968611;28;20459;-65
2020/12/24 09:52:28;;;;;;;10.27;9.20;;;4.80;99.90;;;;;;4963016;28;20539;-65
2020/12/24 09:54:54;;;;;;;10.23;9.23;;;4.90;99.90;;;;;;4973268;28;20444;-65
2020/12/24 09:57:21;;;;;;;9.90;8.90;;;4.90;99.90;;;;;;4971942;28;20455;-67
2020/12/24 09:59:47;;;;;;;11.10;9.47;;;4.90;99.90;;;;;;4970229;28;20466;-65
2020/12/24 10:02:14;;;;;;;11.17;10.17;;;4.90;99.90;;;;;;4967699;28;20479;-65
2020/12/24 10:04:40;;;;;;;10.10;9.20;;;5.00;99.90;;;;;;4953913;28;20982;-66
2020/12/24 10:07:06;;;;;;;10.47;9.50;;;5.10;99.90;;;;;;4957505;28;20506;-68
2020/12/24 10:09:32;;;;;;;11.70;10.50;;;5.00;99.90;;;;;;4956581;28;20490;-65
2020/12/24 10:11:59;;;;;;;10.70;9.80;;;4.90;99.90;;;;;;4954724;28;20493;-64
2020/12/24 10:14:26;;;;;;;12.13;11.03;;;5.00;99.90;;;;;;4957102;28;20459;-64
2020/12/24 10:16:52;;;;;;;12.53;11.33;;;5.00;99.90;;;;;;4963562;28;20452;-66
2020/12/24 10:19:18;;;;;;;13.40;12.20;;;4.90;99.90;;;;;;4961203;28;20456;-66
2020/12/24 10:21:45;;;;;;;13.10;11.90;;;5.00;99.90;;;;;;4971429;28;20480;-65
2020/12/24 10:24:11;;;;;;;13.67;12.27;;;5.00;99.90;;;;;;4962631;28;20461;-66
2020/12/24 10:26:38;;;;;;;13.03;11.73;;;5.00;99.90;;;;;;4953228;29;20448;-64
2020/12/24 10:29:04;;;;;;;13.43;12.17;;;5.00;99.90;;;;;;4962039;28;20491;-65
2020/12/24 10:31:32;;;;;;;12.93;11.63;;;5.10;99.90;;;;;;4960048;28;20478;-66
2020/12/24 10:33:58;;;;;;;13.47;12.17;;;5.00;99.90;;;;;;4960206;28;20455;-65
2020/12/24 10:36:25;;;;;;;12.73;11.50;;;5.10;99.90;;;;;;4972908;28;20451;-65
2020/12/24 10:38:52;;;;;;;13.67;12.43;;;5.10;99.90;;;;;;4963113;28;20458;-68
2020/12/24 10:41:18;;;;;;;14.70;13.30;;;5.10;99.90;;;;;;4972637;28;20476;-68
2020/12/24 10:43:45;;;;;;;15.33;13.10;;;5.20;99.90;;;;;;4966963;28;20837;-67
2020/12/24 10:46:15;;;;;;;15.83;13.97;;;5.20;99.90;;;;;;4954009;28;20464;-68
2020/12/24 10:48:43;;;;;;;15.53;14.13;;;5.20;99.90;;;;;;4958576;28;20560;-66
2020/12/24 10:51:09;;;;;;;16.90;12.60;;;5.30;99.90;;;;;;4968930;28;20542;-67
2020/12/24 10:53:35;;;;;;;14.77;7.67;;;5.40;99.90;;;;;;4965514;28;20459;-65
2020/12/24 10:56:02;;;;;;;18.33;12.97;;;6.60;99.90;;;;;;4971995;28;20955;-65
2020/12/24 10:58:28;;;;;;;18.50;16.50;;;6.10;99.90;;;;;;4973004;28;20452;-64
2020/12/24 11:00:54;;;;;;;20.40;18.10;;;5.40;99.90;;;;;;4973146;28;20452;-64
2020/12/24 11:03:25;;;;;;;23.00;20.20;;;5.30;99.90;;;;;;4966891;28;20517;-64
2020/12/24 11:05:53;;;;;;;21.83;19.57;;;5.30;99.90;;;;;;4963601;28;20452;-65
2020/12/24 11:08:19;;;;;;;25.57;19.97;;;5.40;99.90;;;;;;4953294;29;20487;-65
2020/12/24 11:10:45;;;;;;;27.30;20.30;;;5.30;99.90;;;;;;4953804;28;20452;-66
2020/12/24 11:13:11;;;;;;;28.37;22.30;;;5.40;99.90;;;;;;4953249;28;20484;-65
2020/12/24 11:15:39;;;;;;;26.10;22.03;;;5.50;99.90;;;;;;4953747;28;20821;-65
2020/12/24 11:18:05;;;;;;;27.13;22.53;;;5.50;99.90;;;;;;4953235;28;20828;-65
2020/12/24 11:20:32;;;;;;;25.97;22.50;;;5.40;99.90;;;;;;4972355;28;20482;-65
2020/12/24 11:22:59;;;;;;;11.47;8.27;;;5.50;99.90;;;;;;4965019;28;20481;-66
2020/12/24 11:25:25;;;;;;;24.60;21.30;;;8.00;99.90;;;;;;4953044;28;20474;-65
2020/12/24 11:27:51;;;;;;;26.33;21.27;;;5.60;99.90;;;;;;4958916;28;20489;-65
2020/12/24 11:30:18;;;;;;;26.67;23.40;;;5.60;99.90;;;;;;4967009;28;20460;-66
2020/12/24 11:32:44;;;;;;;27.37;22.40;;;5.60;99.90;;;;;;4958930;28;20463;-65
2020/12/24 11:35:10;;;;;;;28.17;21.57;;;5.80;99.90;;;;;;4968734;28;20456;-66
2020/12/24 11:37:36;;;;;;;28.97;23.47;;;5.70;99.90;;;;;;4952837;28;20456;-66
2020/12/24 11:40:04;;;;;;;28.77;24.67;;;5.60;99.90;;;;;;4958448;28;20603;-65
2020/12/24 11:42:31;;;;;;;27.17;24.17;;;5.70;99.90;;;;;;4973105;28;20474;-63
2020/12/24 11:44:58;;;;;;;27.67;21.90;;;5.70;99.90;;;;;;4962486;28;20451;-64
2020/12/24 11:47:24;;;;;;;26.07;22.97;;;5.60;99.90;;;;;;4956276;29;20460;-64
2020/12/24 11:49:50;;;;;;;26.50;22.00;;;5.70;99.90;;;;;;4956326;28;20490;-64
2020/12/24 11:52:16;;;;;;;21.67;18.93;;;5.80;99.90;;;;;;4956374;28;20491;-64
2020/12/24 11:54:43;;;;;;;22.63;20.00;;;5.80;99.90;;;;;;4975580;28;20443;-63
2020/12/24 11:57:10;;;;;;;22.87;20.40;;;5.90;99.90;;;;;;4957579;28;20456;-64
2020/12/24 11:59:36;;;;;;;24.27;19.10;;;6.00;99.90;;;;;;4956270;28;20817;-64
2020/12/24 12:02:02;;;;;;;25.10;19.40;;;5.90;99.90;;;;;;4972198;28;20485;-64
2020/12/24 12:04:29;;;;;;;21.73;19.43;;;6.00;99.90;;;;;;4955447;28;20475;-64
2020/12/24 12:06:55;;;;;;;25.23;21.10;;;6.30;99.90;;;;;;4956300;28;20472;-64
2020/12/24 12:09:21;;;;;;;24.20;20.40;;;6.00;99.90;;;;;;4956132;29;20488;-63
2020/12/24 12:11:47;;;;;;;24.80;21.13;;;5.90;99.90;;;;;;4956127;28;20557;-65
2020/12/24 12:14:15;;;;;;;22.47;20.07;;;5.90;99.90;;;;;;4956273;28;20457;-62
2020/12/24 12:16:41;;;;;;;24.40;20.60;;;5.90;99.90;;;;;;4955935;28;20448;-63
2020/12/24 12:19:08;;;;;;;23.37;18.40;;;6.00;99.90;;;;;;4954311;29;20453;-65
2020/12/24 12:21:35;;;;;;;21.00;18.80;;;5.90;99.90;;;;;;4955884;28;20480;-65
2020/12/24 12:24:01;;;;;;;22.47;19.70;;;5.90;99.90;;;;;;4940955;29;20968;-66
2020/12/24 12:26:28;;;;;;;21.27;18.73;;;6.00;99.90;;;;;;4946990;29;20456;-64
2020/12/24 12:28:55;;;;;;;23.70;20.17;;;6.00;99.90;;;;;;4955446;29;21008;-63
2020/12/24 12:31:24;;;;;;;21.33;17.83;;;7.90;99.90;;;;;;4962546;28;20471;-65
2020/12/24 12:33:52;;;;;;;18.60;16.83;;;6.10;99.90;;;;;;4955119;28;20468;-69
2020/12/24 12:36:18;;;;;;;17.83;15.83;;;6.00;99.90;;;;;;4955623;28;20843;-71
2020/12/24 12:38:46;;;;;;;17.97;16.10;;;5.90;99.90;;;;;;4959178;28;20828;-68
2020/12/24 12:41:13;;;;;;;16.77;14.97;;;5.90;99.90;;;;;;4955345;29;20476;-68
2020/12/24 12:43:39;;;;;;;16.90;15.07;;;6.00;99.90;;;;;;4957785;28;20463;-70
2020/12/24 12:46:06;;;;;;;20.83;16.20;;;6.00;99.90;;;;;;4961594;28;20456;-71
2020/12/24 12:48:33;;;;;;;17.50;15.70;;;6.00;99.90;;;;;;4961060;28;20483;-70
2020/12/24 12:51:00;;;;;;;16.80;14.77;;;6.00;99.90;;;;;;4963801;28;20826;-71
2020/12/24 12:53:26;;;;;;;17.90;14.57;;;6.10;99.90;;;;;;4965349;28;20966;-71
2020/12/24 12:55:52;;;;;;;16.07;14.40;;;6.00;99.90;;;;;;4954873;29;20453;-70